createdAt,value
2018-03-07T00:00:16.480Z,20.23
2018-03-07T00:01:19.011Z,20.23
2018-03-07T00:02:21.552Z,20.23
2018-03-07T00:03:24.066Z,20.24
2018-03-07T00:04:26.612Z,20.23
2018-03-07T00:05:29.110Z,20.23
2018-03-07T00:06:31.648Z,20.23
2018-03-07T00:07:34.191Z,20.23
2018-03-07T00:08:36.706Z,20.22
2018-03-07T00:09:39.220Z,20.23
2018-03-07T00:10:41.743Z,20.23
2018-03-07T00:11:44.279Z,20.22
2018-03-07T00:12:46.812Z,20.22
2018-03-07T00:13:49.340Z,20.21
2018-03-07T00:14:51.872Z,20.21
2018-03-07T00:15:54.416Z,20.20
2018-03-07T00:16:56.935Z,20.21
2018-03-07T00:17:59.476Z,20.20
2018-03-07T00:19:02.008Z,20.20
2018-03-07T00:20:04.563Z,20.19
2018-03-07T00:21:07.070Z,20.19
2018-03-07T00:22:09.578Z,20.19
2018-03-07T00:23:12.109Z,20.19
2018-03-07T00:24:14.713Z,20.18
2018-03-07T00:25:17.227Z,20.18
2018-03-07T00:26:19.772Z,20.19
2018-03-07T00:27:22.278Z,20.20
2018-03-07T00:28:24.810Z,20.21
2018-03-07T00:29:27.327Z,20.22
2018-03-07T00:30:29.852Z,20.23
2018-03-07T00:31:32.362Z,20.22
2018-03-07T00:32:34.888Z,20.22
2018-03-07T00:33:37.432Z,20.22
2018-03-07T00:34:39.956Z,20.22
2018-03-07T00:35:42.480Z,20.22
2018-03-07T00:36:45.000Z,20.22
2018-03-07T00:37:47.506Z,20.24
2018-03-07T00:38:50.034Z,20.24
2018-03-07T00:39:52.568Z,20.24
2018-03-07T00:40:55.078Z,20.25
2018-03-07T00:41:57.600Z,20.26
2018-03-07T00:43:00.121Z,20.26
2018-03-07T00:44:02.650Z,20.26
2018-03-07T00:45:05.153Z,20.25
2018-03-07T00:46:07.658Z,20.26
2018-03-07T00:47:10.170Z,20.26
2018-03-07T00:48:12.678Z,20.26
2018-03-07T00:49:15.216Z,20.27
2018-03-07T00:50:17.743Z,20.27
2018-03-07T00:51:20.246Z,20.25
2018-03-07T00:52:22.789Z,20.25
2018-03-07T00:53:25.323Z,20.24
2018-03-07T00:54:27.867Z,20.24
2018-03-07T00:55:30.408Z,20.24
2018-03-07T00:56:32.913Z,20.23
2018-03-07T00:57:35.440Z,20.23
2018-03-07T00:58:38.299Z,20.24
2018-03-07T00:59:40.844Z,20.24
2018-03-07T01:00:43.368Z,20.25
2018-03-07T01:01:45.891Z,20.22
2018-03-07T01:02:48.430Z,20.23
2018-03-07T01:03:50.956Z,20.22
2018-03-07T01:04:53.513Z,20.21
2018-03-07T01:05:56.021Z,20.21
2018-03-07T01:06:58.567Z,20.20
2018-03-07T01:08:01.088Z,20.18
2018-03-07T01:09:03.612Z,20.17
2018-03-07T01:10:06.143Z,20.16
2018-03-07T01:11:08.668Z,20.15
2018-03-07T01:12:11.214Z,20.17
2018-03-07T01:13:13.720Z,20.17
2018-03-07T01:14:16.230Z,20.18
2018-03-07T01:15:18.772Z,20.17
2018-03-07T01:16:21.296Z,20.18
2018-03-07T01:17:23.816Z,20.19
2018-03-07T01:18:26.337Z,20.18
2018-03-07T01:19:28.860Z,20.18
2018-03-07T01:20:31.393Z,20.18
2018-03-07T01:21:33.916Z,20.18
2018-03-07T01:22:36.449Z,20.16
2018-03-07T01:23:38.972Z,20.16
2018-03-07T01:24:41.488Z,20.15
2018-03-07T01:25:44.018Z,20.16
2018-03-07T01:26:46.544Z,20.15
2018-03-07T01:27:49.062Z,20.16
2018-03-07T01:28:51.566Z,20.16
2018-03-07T01:29:54.070Z,20.16
2018-03-07T01:30:56.598Z,20.16
2018-03-07T01:31:59.131Z,20.15
2018-03-07T01:33:01.678Z,20.15
2018-03-07T01:34:04.199Z,20.15
2018-03-07T01:35:06.732Z,20.14
2018-03-07T01:36:09.357Z,20.14
2018-03-07T01:37:11.869Z,20.14
2018-03-07T01:38:14.386Z,20.13
2018-03-07T01:39:16.911Z,20.12
2018-03-07T01:40:19.449Z,20.13
2018-03-07T01:41:21.976Z,20.14
2018-03-07T01:42:24.502Z,20.13
2018-03-07T01:43:27.017Z,20.12
2018-03-07T01:44:29.562Z,20.12
2018-03-07T01:45:32.087Z,20.12
2018-03-07T01:46:34.606Z,20.10
2018-03-07T01:47:37.124Z,20.09
2018-03-07T01:48:39.664Z,20.08
2018-03-07T01:49:42.193Z,20.08
2018-03-07T01:50:44.705Z,20.08
2018-03-07T01:51:59.065Z,20.07
2018-03-07T01:53:01.579Z,20.06
2018-03-07T01:54:04.090Z,20.05
2018-03-07T01:55:06.620Z,20.05
2018-03-07T01:56:09.178Z,20.04
2018-03-07T01:57:11.691Z,20.03
2018-03-07T01:58:14.206Z,20.03
2018-03-07T01:59:16.727Z,20.03
2018-03-07T02:00:19.236Z,20.03
2018-03-07T02:01:21.780Z,20.02
2018-03-07T02:02:24.336Z,20.01
2018-03-07T02:03:26.838Z,20.01
2018-03-07T02:04:29.350Z,20.01
2018-03-07T02:05:31.862Z,20.01
2018-03-07T02:06:34.405Z,20.01
2018-03-07T02:07:36.913Z,20.00
2018-03-07T02:08:39.448Z,19.99
2018-03-07T02:09:41.984Z,20.00
2018-03-07T02:10:44.503Z,20.00
2018-03-07T02:11:47.038Z,20.00
2018-03-07T02:12:49.565Z,20.00
2018-03-07T02:13:52.084Z,20.00
2018-03-07T02:14:54.605Z,20.00
2018-03-07T02:15:57.132Z,20.00
2018-03-07T02:16:59.677Z,20.01
2018-03-07T02:18:02.214Z,20.00
2018-03-07T02:19:04.735Z,20.00
2018-03-07T02:20:07.242Z,19.99
2018-03-07T02:21:09.772Z,20.01
2018-03-07T02:22:12.302Z,20.00
2018-03-07T02:23:14.814Z,20.00
2018-03-07T02:24:17.325Z,20.00
2018-03-07T02:25:19.852Z,20.01
2018-03-07T02:26:22.372Z,20.00
2018-03-07T02:27:24.914Z,20.00
2018-03-07T02:28:27.447Z,20.02
2018-03-07T02:29:29.978Z,20.02
2018-03-07T02:30:32.513Z,20.01
2018-03-07T02:31:35.056Z,20.01
2018-03-07T02:32:37.583Z,20.03
2018-03-07T02:33:40.102Z,20.03
2018-03-07T02:34:42.628Z,20.04
2018-03-07T02:35:45.157Z,20.06
2018-03-07T02:36:47.684Z,20.08
2018-03-07T02:37:50.211Z,20.09
2018-03-07T02:38:52.717Z,20.09
2018-03-07T02:39:55.240Z,20.10
2018-03-07T02:40:57.760Z,20.10
2018-03-07T02:42:00.280Z,20.09
2018-03-07T02:43:02.810Z,20.09
2018-03-07T02:44:05.350Z,20.10
2018-03-07T02:45:07.859Z,20.10
2018-03-07T02:46:10.408Z,20.09
2018-03-07T02:47:12.944Z,20.08
2018-03-07T02:48:15.462Z,20.07
2018-03-07T02:49:17.989Z,20.06
2018-03-07T02:50:20.513Z,20.05
2018-03-07T02:51:23.045Z,20.03
2018-03-07T02:52:25.574Z,20.02
2018-03-07T02:53:28.094Z,20.01
2018-03-07T02:54:30.608Z,19.99
2018-03-07T02:55:33.119Z,19.98
2018-03-07T02:56:35.688Z,19.97
2018-03-07T02:57:38.218Z,19.95
2018-03-07T02:58:40.742Z,19.93
2018-03-07T02:59:43.254Z,19.93
2018-03-07T03:00:45.761Z,19.92
2018-03-07T03:01:48.267Z,19.92
2018-03-07T03:02:50.812Z,19.92
2018-03-07T03:03:53.341Z,19.90
2018-03-07T03:04:55.867Z,19.90
2018-03-07T03:05:58.388Z,19.90
2018-03-07T03:07:00.903Z,19.89
2018-03-07T03:08:03.439Z,19.89
2018-03-07T03:09:05.965Z,19.88
2018-03-07T03:10:08.470Z,19.88
2018-03-07T03:11:10.974Z,19.87
2018-03-07T03:12:13.509Z,19.87
2018-03-07T03:13:16.046Z,19.88
2018-03-07T03:14:18.559Z,19.87
2018-03-07T03:15:21.084Z,19.86
2018-03-07T03:16:23.589Z,19.87
2018-03-07T03:17:26.116Z,19.87
2018-03-07T03:18:28.662Z,19.86
2018-03-07T03:19:31.184Z,19.85
2018-03-07T03:20:33.708Z,19.84
2018-03-07T03:21:36.215Z,19.84
2018-03-07T03:22:38.721Z,19.84
2018-03-07T03:23:41.266Z,19.83
2018-03-07T03:24:43.779Z,19.82
2018-03-07T03:25:46.304Z,19.82
2018-03-07T03:26:48.851Z,19.82
2018-03-07T03:27:51.362Z,19.81
2018-03-07T03:28:53.894Z,19.82
2018-03-07T03:29:56.409Z,19.80
2018-03-07T03:30:58.920Z,19.80
2018-03-07T03:32:01.484Z,19.79
2018-03-07T03:33:04.001Z,19.78
2018-03-07T03:34:06.547Z,19.78
2018-03-07T03:35:09.054Z,19.78
2018-03-07T03:36:11.579Z,19.78
2018-03-07T03:37:14.082Z,19.77
2018-03-07T03:38:16.612Z,19.77
2018-03-07T03:39:19.156Z,19.75
2018-03-07T03:40:21.681Z,19.76
2018-03-07T03:41:24.198Z,19.75
2018-03-07T03:42:26.701Z,19.75
2018-03-07T03:43:29.223Z,19.74
2018-03-07T03:44:31.763Z,19.74
2018-03-07T03:45:34.266Z,19.74
2018-03-07T03:46:36.773Z,19.73
2018-03-07T03:47:39.300Z,19.73
2018-03-07T03:48:41.823Z,19.73
2018-03-07T03:49:44.364Z,19.73
2018-03-07T03:50:46.874Z,19.73
2018-03-07T03:51:49.382Z,19.73
2018-03-07T03:52:51.894Z,19.72
2018-03-07T03:53:54.397Z,19.72
2018-03-07T03:54:56.940Z,19.73
2018-03-07T03:55:59.446Z,19.73
2018-03-07T03:57:01.967Z,19.72
2018-03-07T03:58:04.552Z,19.72
2018-03-07T03:59:07.065Z,19.72
2018-03-07T04:00:09.593Z,19.72
2018-03-07T04:01:12.112Z,19.71
2018-03-07T04:02:14.632Z,19.70
2018-03-07T04:03:17.181Z,19.71
2018-03-07T04:04:19.702Z,19.70
2018-03-07T04:05:22.234Z,19.70
2018-03-07T04:06:24.775Z,19.70
2018-03-07T04:07:27.278Z,19.70
2018-03-07T04:08:29.799Z,19.71
2018-03-07T04:09:32.327Z,19.72
2018-03-07T04:10:34.868Z,19.72
2018-03-07T04:11:37.396Z,19.73
2018-03-07T04:12:39.920Z,19.73
2018-03-07T04:13:42.440Z,19.73
2018-03-07T04:14:44.950Z,19.74
2018-03-07T04:15:47.470Z,19.74
2018-03-07T04:16:49.993Z,19.73
2018-03-07T04:17:52.512Z,19.73
2018-03-07T04:18:55.043Z,19.73
2018-03-07T04:19:57.571Z,19.72
2018-03-07T04:21:00.119Z,19.72
2018-03-07T04:22:02.644Z,19.71
2018-03-07T04:23:05.164Z,19.70
2018-03-07T04:24:07.670Z,19.68
2018-03-07T04:25:10.204Z,19.68
2018-03-07T04:26:12.715Z,19.67
2018-03-07T04:27:15.225Z,19.67
2018-03-07T04:28:17.752Z,19.68
2018-03-07T04:29:20.258Z,19.67
2018-03-07T04:30:22.765Z,19.66
2018-03-07T04:31:25.282Z,19.66
2018-03-07T04:32:27.786Z,19.66
2018-03-07T04:33:30.290Z,19.66
2018-03-07T04:34:32.796Z,19.67
2018-03-07T04:35:35.316Z,19.67
2018-03-07T04:36:37.874Z,19.67
2018-03-07T04:37:40.399Z,19.67
2018-03-07T04:38:42.901Z,19.68
2018-03-07T04:39:45.410Z,19.68
2018-03-07T04:40:47.913Z,19.68
2018-03-07T04:41:50.438Z,19.68
2018-03-07T04:42:53.027Z,19.68
2018-03-07T04:43:55.542Z,19.69
2018-03-07T04:44:58.068Z,19.69
2018-03-07T04:46:00.604Z,19.69
2018-03-07T04:47:03.110Z,19.68
2018-03-07T04:48:05.643Z,19.69
2018-03-07T04:49:08.162Z,19.67
2018-03-07T04:50:10.665Z,19.67
2018-03-07T04:51:13.204Z,19.67
2018-03-07T04:52:15.715Z,19.67
2018-03-07T04:53:18.238Z,19.67
2018-03-07T04:54:20.742Z,19.67
2018-03-07T04:55:23.249Z,19.66
2018-03-07T04:56:25.769Z,19.66
2018-03-07T04:57:28.293Z,19.67
2018-03-07T04:58:30.816Z,19.66
2018-03-07T04:59:33.355Z,19.66
2018-03-07T05:00:35.872Z,19.66
2018-03-07T05:01:38.421Z,19.66
2018-03-07T05:02:40.997Z,19.67
2018-03-07T05:03:43.497Z,19.68
2018-03-07T05:04:46.010Z,19.69
2018-03-07T05:05:48.536Z,19.70
2018-03-07T05:06:51.083Z,19.70
2018-03-07T05:07:53.599Z,19.71
2018-03-07T05:08:56.127Z,19.71
2018-03-07T05:09:58.648Z,19.71
2018-03-07T05:11:01.166Z,19.70
2018-03-07T05:12:03.716Z,19.69
2018-03-07T05:13:06.248Z,19.69
2018-03-07T05:14:08.772Z,19.69
2018-03-07T05:15:11.276Z,19.68
2018-03-07T05:16:13.827Z,19.68
2018-03-07T05:17:16.376Z,19.69
2018-03-07T05:18:18.906Z,19.68
2018-03-07T05:19:21.441Z,19.67
2018-03-07T05:20:23.964Z,19.65
2018-03-07T05:21:26.470Z,19.64
2018-03-07T05:22:29.005Z,19.63
2018-03-07T05:23:31.517Z,19.63
2018-03-07T05:24:34.101Z,19.65
2018-03-07T05:25:36.613Z,19.65
2018-03-07T05:26:39.137Z,19.65
2018-03-07T05:27:41.684Z,19.63
2018-03-07T05:28:44.209Z,19.62
2018-03-07T05:29:46.732Z,19.61
2018-03-07T05:30:49.419Z,19.61
2018-03-07T05:31:51.934Z,19.61
2018-03-07T05:32:54.481Z,19.61
2018-03-07T05:33:56.999Z,19.60
2018-03-07T05:34:59.513Z,19.58
2018-03-07T05:36:02.026Z,19.58
2018-03-07T05:37:04.538Z,19.57
2018-03-07T05:38:07.084Z,19.57
2018-03-07T05:39:09.594Z,19.58
2018-03-07T05:40:12.120Z,19.57
2018-03-07T05:41:14.632Z,19.57
2018-03-07T05:42:17.153Z,19.59
2018-03-07T05:43:19.776Z,19.61
2018-03-07T05:44:22.337Z,19.61
2018-03-07T05:45:24.868Z,19.60
2018-03-07T05:46:27.408Z,19.61
2018-03-07T05:47:29.918Z,19.61
2018-03-07T05:48:32.462Z,19.61
2018-03-07T05:49:34.984Z,19.62
2018-03-07T05:50:37.490Z,19.62
2018-03-07T05:51:40.010Z,19.63
2018-03-07T05:52:42.525Z,19.63
2018-03-07T05:53:45.057Z,19.62
2018-03-07T05:54:47.565Z,19.62
2018-03-07T05:55:50.112Z,19.61
2018-03-07T05:56:52.626Z,19.62
2018-03-07T05:57:55.146Z,19.62
2018-03-07T05:58:57.682Z,19.60
2018-03-07T06:00:00.204Z,19.61
2018-03-07T06:01:02.717Z,19.60
2018-03-07T06:02:05.243Z,19.60
2018-03-07T06:03:07.772Z,19.60
2018-03-07T06:04:10.439Z,19.59
2018-03-07T06:05:12.953Z,19.58
2018-03-07T06:06:15.496Z,19.56
2018-03-07T06:07:18.015Z,19.56
2018-03-07T06:08:20.597Z,19.55
2018-03-07T06:09:23.146Z,19.54
2018-03-07T06:10:25.668Z,19.54
2018-03-07T06:11:28.288Z,19.53
2018-03-07T06:12:30.882Z,19.53
2018-03-07T06:13:33.483Z,19.53
2018-03-07T06:14:36.022Z,19.56
2018-03-07T06:15:38.534Z,19.57
2018-03-07T06:16:41.042Z,19.57
2018-03-07T06:17:43.549Z,19.59
2018-03-07T06:18:46.204Z,19.60
2018-03-07T06:19:48.751Z,19.61
2018-03-07T06:20:51.271Z,19.61
2018-03-07T06:21:53.785Z,19.63
2018-03-07T06:22:56.447Z,19.65
2018-03-07T06:23:59.270Z,19.63
2018-03-07T06:25:02.316Z,19.61
2018-03-07T06:26:04.940Z,19.60
2018-03-07T06:27:07.691Z,19.59
2018-03-07T06:28:10.462Z,19.58
2018-03-07T06:29:13.520Z,19.56
2018-03-07T06:30:17.770Z,19.56
2018-03-07T06:31:21.048Z,19.58
2018-03-07T06:32:24.272Z,19.60
2018-03-07T06:33:27.468Z,19.58
2018-03-07T06:34:30.351Z,19.58
2018-03-07T06:35:33.041Z,19.60
2018-03-07T06:36:35.603Z,19.62
2018-03-07T06:37:38.252Z,19.63
2018-03-07T06:38:40.936Z,19.61
2018-03-07T06:39:43.510Z,19.60
2018-03-07T06:40:46.163Z,19.60
2018-03-07T06:41:48.708Z,19.60
2018-03-07T06:42:51.250Z,19.61
2018-03-07T06:43:54.604Z,19.61
2018-03-07T06:44:57.477Z,19.62
2018-03-07T06:46:00.036Z,19.66
2018-03-07T06:47:02.567Z,19.68
2018-03-07T06:48:05.082Z,19.70
2018-03-07T06:49:07.854Z,19.71
2018-03-07T06:50:10.386Z,19.72
2018-03-07T06:51:13.034Z,19.73
2018-03-07T06:52:15.572Z,19.73
2018-03-07T06:53:18.164Z,19.71
2018-03-07T06:54:20.674Z,19.69
2018-03-07T06:55:23.200Z,19.68
2018-03-07T06:56:25.714Z,19.66
2018-03-07T06:57:28.246Z,19.65
2018-03-07T06:58:30.800Z,19.64
2018-03-07T06:59:33.321Z,19.62
2018-03-07T07:00:35.848Z,19.61
2018-03-07T07:01:38.357Z,19.59
2018-03-07T07:02:40.875Z,19.58
2018-03-07T07:03:43.415Z,19.56
2018-03-07T07:04:45.938Z,19.55
2018-03-07T07:05:48.456Z,19.53
2018-03-07T07:06:50.980Z,19.53
2018-03-07T07:07:53.528Z,19.51
2018-03-07T07:08:56.152Z,19.50
2018-03-07T07:09:58.667Z,19.49
2018-03-07T07:11:01.174Z,19.49
2018-03-07T07:12:03.696Z,19.48
2018-03-07T07:13:06.230Z,19.47
2018-03-07T07:14:08.738Z,19.46
2018-03-07T07:15:11.246Z,19.46
2018-03-07T07:16:13.936Z,19.45
2018-03-07T07:17:17.334Z,19.44
2018-03-07T07:18:19.973Z,19.44
2018-03-07T07:19:22.776Z,19.44
2018-03-07T07:20:25.515Z,19.43
2018-03-07T07:21:28.038Z,19.43
2018-03-07T07:22:30.641Z,19.42
2018-03-07T07:23:33.386Z,19.44
2018-03-07T07:24:36.152Z,19.43
2018-03-07T07:25:38.897Z,19.43
2018-03-07T07:26:41.512Z,19.43
2018-03-07T07:27:44.196Z,19.43
2018-03-07T07:28:46.778Z,19.42
2018-03-07T07:29:49.970Z,19.43
2018-03-07T07:30:53.097Z,19.43
2018-03-07T07:31:55.695Z,19.43
2018-03-07T07:32:58.245Z,19.43
2018-03-07T07:34:01.294Z,19.43
2018-03-07T07:35:03.824Z,19.43
2018-03-07T07:36:06.678Z,19.43
2018-03-07T07:37:09.210Z,19.43
2018-03-07T07:38:11.828Z,19.43
2018-03-07T07:39:14.356Z,19.44
2018-03-07T07:40:16.862Z,19.43
2018-03-07T07:41:19.391Z,19.44
2018-03-07T07:42:21.950Z,19.44
2018-03-07T07:43:24.478Z,19.45
2018-03-07T07:44:26.999Z,19.45
2018-03-07T07:45:29.509Z,19.45
2018-03-07T07:46:32.030Z,19.46
2018-03-07T07:47:34.533Z,19.46
2018-03-07T07:48:37.329Z,19.47
2018-03-07T07:49:39.865Z,19.47
2018-03-07T07:50:42.440Z,19.47
2018-03-07T07:51:44.925Z,19.47
2018-03-07T07:52:47.438Z,19.48
2018-03-07T07:53:49.981Z,19.48
2018-03-07T07:54:52.486Z,19.49
2018-03-07T07:55:55.022Z,19.49
2018-03-07T07:56:57.548Z,19.49
2018-03-07T07:58:00.062Z,19.50
2018-03-07T07:59:02.610Z,19.51
2018-03-07T08:00:05.138Z,19.51
2018-03-07T08:01:07.670Z,19.52
2018-03-07T08:02:10.173Z,19.51
2018-03-07T08:03:12.697Z,19.53
2018-03-07T08:04:15.225Z,19.53
2018-03-07T08:05:17.738Z,19.54
2018-03-07T08:06:20.300Z,19.53
2018-03-07T08:07:22.820Z,19.53
2018-03-07T08:08:25.326Z,19.53
2018-03-07T08:09:27.864Z,19.54
2018-03-07T08:10:30.400Z,19.54
2018-03-07T08:11:32.953Z,19.49
2018-03-07T08:12:35.503Z,19.41
2018-03-07T08:13:38.057Z,19.32
2018-03-07T08:14:40.613Z,19.22
2018-03-07T08:15:43.150Z,19.15
2018-03-07T08:16:45.752Z,19.08
2018-03-07T08:17:48.267Z,19.02
2018-03-07T08:18:50.807Z,18.96
2018-03-07T08:19:53.364Z,18.90
2018-03-07T08:20:55.900Z,18.87
2018-03-07T08:21:58.422Z,18.82
2018-03-07T08:23:00.956Z,18.76
2018-03-07T08:24:03.488Z,18.67
2018-03-07T08:25:06.022Z,18.62
2018-03-07T08:26:08.567Z,18.57
2018-03-07T08:27:11.086Z,18.52
2018-03-07T08:28:13.623Z,18.48
2018-03-07T08:29:16.152Z,18.42
2018-03-07T08:30:18.710Z,18.39
2018-03-07T08:31:21.226Z,18.36
2018-03-07T08:32:23.764Z,18.26
2018-03-07T08:33:26.281Z,18.16
2018-03-07T08:34:28.795Z,18.17
2018-03-07T08:35:31.321Z,18.16
2018-03-07T08:36:33.842Z,18.17
2018-03-07T08:37:36.358Z,18.10
2018-03-07T08:38:39.847Z,17.97
2018-03-07T08:39:42.459Z,17.91
2018-03-07T08:40:45.143Z,17.82
2018-03-07T08:41:47.844Z,17.82
2018-03-07T08:42:50.448Z,17.74
2018-03-07T08:43:53.106Z,17.74
2018-03-07T08:44:55.782Z,17.68
2018-03-07T08:45:58.451Z,17.59
2018-03-07T08:47:01.128Z,17.46
2018-03-07T08:48:03.779Z,17.47
2018-03-07T08:49:06.427Z,17.50
2018-03-07T08:50:09.006Z,17.45
2018-03-07T08:51:11.613Z,17.42
2018-03-07T08:52:14.130Z,17.35
2018-03-07T08:53:16.659Z,17.31
2018-03-07T08:54:19.204Z,17.25
2018-03-07T08:55:21.730Z,17.23
2018-03-07T08:56:24.271Z,17.27
2018-03-07T08:57:26.811Z,17.27
2018-03-07T08:58:29.365Z,17.27
2018-03-07T08:59:31.907Z,17.29
2018-03-07T09:00:34.453Z,17.24
2018-03-07T09:01:36.998Z,17.28
2018-03-07T09:02:39.534Z,17.31
2018-03-07T09:03:42.081Z,17.32
2018-03-07T09:04:44.628Z,17.33
2018-03-07T09:05:47.148Z,17.34
2018-03-07T09:06:49.674Z,17.36
2018-03-07T09:07:52.207Z,17.33
2018-03-07T09:08:54.743Z,17.35
2018-03-07T09:09:57.274Z,17.35
2018-03-07T09:10:59.799Z,17.33
2018-03-07T09:12:02.340Z,17.32
2018-03-07T09:13:04.866Z,17.32
2018-03-07T09:14:07.389Z,17.32
2018-03-07T09:15:09.922Z,17.32
2018-03-07T09:16:12.469Z,17.35
2018-03-07T09:17:15.000Z,17.36
2018-03-07T09:18:17.530Z,17.38
2018-03-07T09:19:20.084Z,17.40
2018-03-07T09:20:22.633Z,17.35
2018-03-07T09:21:25.180Z,17.31
2018-03-07T09:22:27.721Z,17.26
2018-03-07T09:23:30.245Z,17.25
2018-03-07T09:24:32.802Z,17.17
2018-03-07T09:25:35.336Z,17.16
2018-03-07T09:26:37.864Z,17.15
2018-03-07T09:27:40.390Z,17.19
2018-03-07T09:28:42.925Z,17.25
2018-03-07T09:29:45.455Z,17.34
2018-03-07T09:30:48.005Z,17.39
2018-03-07T09:31:50.549Z,17.46
2018-03-07T09:32:53.091Z,17.52
2018-03-07T09:33:55.616Z,17.58
2018-03-07T09:34:58.166Z,17.63
2018-03-07T09:36:00.705Z,17.68
2018-03-07T09:37:03.216Z,17.72
2018-03-07T09:38:05.843Z,17.76
2018-03-07T09:39:08.365Z,17.79
2018-03-07T09:40:10.877Z,17.82
2018-03-07T09:41:13.444Z,17.85
2018-03-07T09:42:15.978Z,17.87
2018-03-07T09:43:18.516Z,17.90
2018-03-07T09:44:21.063Z,17.92
2018-03-07T09:45:23.600Z,17.94
2018-03-07T09:46:26.123Z,17.95
2018-03-07T09:47:28.706Z,17.96
2018-03-07T09:48:31.247Z,17.97
2018-03-07T09:49:33.782Z,17.98
2018-03-07T09:50:36.357Z,17.99
2018-03-07T09:51:38.886Z,18.00
2018-03-07T09:52:41.401Z,18.00
2018-03-07T09:53:43.942Z,18.02
2018-03-07T09:54:46.476Z,18.03
2018-03-07T09:55:49.177Z,18.03
2018-03-07T09:56:51.705Z,18.04
2018-03-07T09:57:54.227Z,18.05
2018-03-07T09:59:04.865Z,18.05
2018-03-07T10:00:07.390Z,18.05
2018-03-07T10:01:09.901Z,18.06
2018-03-07T10:02:12.418Z,18.06
2018-03-07T10:04:48.830Z,18.08
2018-03-07T10:09:26.218Z,18.15
2018-03-07T10:10:40.297Z,18.21
2018-03-07T10:11:43.545Z,18.24
2018-03-07T10:12:53.514Z,18.26
2018-03-07T10:16:35.846Z,18.32
2018-03-07T10:17:42.297Z,18.34
2018-03-07T10:20:26.949Z,18.36
2018-03-07T10:21:35.612Z,18.37
2018-03-07T10:25:30.251Z,18.40
2018-03-07T10:26:57.103Z,18.40
2018-03-07T10:27:59.789Z,18.41
2018-03-07T10:29:02.325Z,18.41
2018-03-07T10:30:04.889Z,18.42
2018-03-07T10:31:07.422Z,18.42
2018-03-07T10:32:10.127Z,18.42
2018-03-07T10:33:18.231Z,18.43
2018-03-07T10:34:20.779Z,18.42
2018-03-07T10:35:23.346Z,18.43
2018-03-07T10:36:25.871Z,18.44
2018-03-07T10:37:28.408Z,18.44
2018-03-07T10:38:30.949Z,18.44
2018-03-07T10:39:33.461Z,18.44
2018-03-07T10:40:36.008Z,18.44
2018-03-07T10:41:38.532Z,18.45
2018-03-07T10:42:41.043Z,18.44
2018-03-07T10:43:43.545Z,18.44
2018-03-07T10:44:46.058Z,18.45
2018-03-07T10:45:48.605Z,18.44
2018-03-07T10:46:51.122Z,18.45
2018-03-07T10:47:53.649Z,18.46
2018-03-07T10:48:56.162Z,18.46
2018-03-07T10:49:58.688Z,18.46
2018-03-07T10:51:01.236Z,18.46
2018-03-07T10:52:03.747Z,18.46
2018-03-07T10:53:06.274Z,18.47
2018-03-07T10:54:08.782Z,18.47
2018-03-07T10:55:11.286Z,18.48
2018-03-07T10:56:13.816Z,18.47
2018-03-07T10:57:16.346Z,18.47
2018-03-07T10:58:18.941Z,18.45
2018-03-07T10:59:21.511Z,18.46
2018-03-07T11:00:29.736Z,18.45
2018-03-07T11:01:32.270Z,18.47
2018-03-07T11:02:34.824Z,18.47
2018-03-07T11:03:37.402Z,18.49
2018-03-07T11:04:39.927Z,18.51
2018-03-07T11:05:42.444Z,18.53
2018-03-07T11:06:44.996Z,18.54
2018-03-07T11:07:47.521Z,18.56
2018-03-07T11:08:50.060Z,18.58
2018-03-07T11:09:52.586Z,18.62
2018-03-07T11:10:55.103Z,18.67
2018-03-07T11:11:57.656Z,18.74
2018-03-07T11:13:00.532Z,18.84
2018-03-07T11:14:03.069Z,18.94
2018-03-07T11:15:05.612Z,19.06
2018-03-07T11:16:08.146Z,19.19
2018-03-07T11:17:10.769Z,19.33
2018-03-07T11:18:13.448Z,19.47
2018-03-07T11:19:16.057Z,19.53
2018-03-07T11:20:18.701Z,19.56
2018-03-07T11:21:21.237Z,19.53
2018-03-07T11:22:24.523Z,19.54
2018-03-07T11:23:27.050Z,19.54
2018-03-07T11:24:29.605Z,19.55
2018-03-07T11:25:32.157Z,19.53
2018-03-07T11:26:34.742Z,19.47
2018-03-07T11:27:37.278Z,19.40
2018-03-07T11:28:39.790Z,19.40
2018-03-07T11:29:42.440Z,19.35
2018-03-07T11:30:44.994Z,19.29
2018-03-07T11:31:47.536Z,19.24
2018-03-07T11:32:50.077Z,19.22
2018-03-07T11:33:56.968Z,19.21
2018-03-07T11:34:59.891Z,19.25
2018-03-07T11:36:02.463Z,19.38
2018-03-07T11:37:04.967Z,19.55
2018-03-07T11:38:07.494Z,19.71
2018-03-07T11:39:10.028Z,19.84
2018-03-07T11:40:12.545Z,19.99
2018-03-07T11:41:15.067Z,20.07
2018-03-07T11:42:17.582Z,20.17
2018-03-07T11:43:20.136Z,20.23
2018-03-07T11:44:22.661Z,20.30
2018-03-07T11:45:25.194Z,20.31
2018-03-07T11:46:27.707Z,20.35
2018-03-07T11:47:30.222Z,20.37
2018-03-07T11:48:32.745Z,20.37
2018-03-07T11:49:35.267Z,20.34
2018-03-07T11:50:37.833Z,20.34
2018-03-07T11:51:40.370Z,20.33
2018-03-07T11:52:42.882Z,20.32
2018-03-07T11:53:45.520Z,20.29
2018-03-07T11:54:48.027Z,20.27
2018-03-07T11:55:50.538Z,20.26
2018-03-07T11:56:53.064Z,20.24
2018-03-07T11:57:55.573Z,20.24
2018-03-07T11:58:58.116Z,20.23
2018-03-07T12:00:00.629Z,20.21
2018-03-07T12:01:03.151Z,20.18
2018-03-07T12:02:05.669Z,20.17
2018-03-07T12:03:08.201Z,20.14
2018-03-07T12:04:10.725Z,20.12
2018-03-07T12:05:13.252Z,20.10
2018-03-07T12:06:15.793Z,20.07
2018-03-07T12:07:18.384Z,20.05
2018-03-07T12:08:20.919Z,20.04
2018-03-07T12:09:23.446Z,20.02
2018-03-07T12:10:25.982Z,19.99
2018-03-07T12:11:28.520Z,19.97
2018-03-07T12:12:31.042Z,19.95
2018-03-07T12:13:33.550Z,19.93
2018-03-07T12:14:36.085Z,19.92
2018-03-07T12:15:38.598Z,19.91
2018-03-07T12:16:41.115Z,19.90
2018-03-07T12:17:43.644Z,19.89
2018-03-07T12:18:46.542Z,19.88
2018-03-07T12:19:49.077Z,19.87
2018-03-07T12:20:51.600Z,19.85
2018-03-07T12:21:54.159Z,19.84
2018-03-07T12:22:56.673Z,19.82
2018-03-07T12:23:59.193Z,19.80
2018-03-07T12:25:01.726Z,19.80
2018-03-07T12:26:04.235Z,19.79
2018-03-07T12:27:06.746Z,19.78
2018-03-07T12:28:09.277Z,19.75
2018-03-07T12:29:11.804Z,19.74
2018-03-07T12:30:14.349Z,19.73
2018-03-07T12:31:16.876Z,19.71
2018-03-07T12:32:19.404Z,19.71
2018-03-07T12:33:21.929Z,19.70
2018-03-07T12:34:24.461Z,19.71
2018-03-07T12:35:26.994Z,19.74
2018-03-07T12:36:29.515Z,19.82
2018-03-07T12:37:32.031Z,19.89
2018-03-07T12:38:36.264Z,19.97
2018-03-07T12:39:38.872Z,20.06
2018-03-07T12:40:41.408Z,20.15
2018-03-07T12:41:44.037Z,20.26
2018-03-07T12:42:46.532Z,20.40
2018-03-07T12:43:49.064Z,20.50
2018-03-07T12:44:51.637Z,20.62
2018-03-07T12:45:54.194Z,20.75
2018-03-07T12:46:56.721Z,20.84
2018-03-07T12:47:59.243Z,20.92
2018-03-07T12:49:01.785Z,20.99
2018-03-07T12:50:04.316Z,21.03
2018-03-07T12:51:06.877Z,21.07
2018-03-07T12:52:09.421Z,21.11
2018-03-07T12:53:11.938Z,21.09
2018-03-07T12:54:14.446Z,21.09
2018-03-07T12:55:16.980Z,21.09
2018-03-07T12:56:19.540Z,21.09
2018-03-07T12:57:22.072Z,21.09
2018-03-07T12:58:24.597Z,21.12
2018-03-07T12:59:27.128Z,21.17
2018-03-07T13:00:29.630Z,21.22
2018-03-07T13:01:32.162Z,21.25
2018-03-07T13:02:34.687Z,21.30
2018-03-07T13:03:37.198Z,21.35
2018-03-07T13:04:39.728Z,21.43
2018-03-07T13:05:42.243Z,21.47
2018-03-07T13:06:44.795Z,21.50
2018-03-07T13:07:47.328Z,21.53
2018-03-07T13:08:49.880Z,21.55
2018-03-07T13:09:52.390Z,21.56
2018-03-07T13:10:54.917Z,21.55
2018-03-07T13:11:57.465Z,21.53
2018-03-07T13:13:00.098Z,21.50
2018-03-07T13:14:02.617Z,21.51
2018-03-07T13:15:05.141Z,21.54
2018-03-07T13:16:07.653Z,21.55
2018-03-07T13:17:10.178Z,21.56
2018-03-07T13:18:12.688Z,21.63
2018-03-07T13:19:15.198Z,21.67
2018-03-07T13:20:17.736Z,21.71
2018-03-07T13:21:20.263Z,21.75
2018-03-07T13:22:22.798Z,21.80
2018-03-07T13:23:25.328Z,21.82
2018-03-07T13:24:27.848Z,21.84
2018-03-07T13:25:30.370Z,21.85
2018-03-07T13:26:32.941Z,21.84
2018-03-07T13:27:35.526Z,21.82
2018-03-07T13:28:38.502Z,21.80
2018-03-07T13:29:41.013Z,21.76
2018-03-07T13:30:43.545Z,21.74
2018-03-07T13:31:46.072Z,21.74
2018-03-07T13:32:48.626Z,21.74
2018-03-07T13:33:51.139Z,21.77
2018-03-07T13:34:53.676Z,21.86
2018-03-07T13:35:56.192Z,21.93
2018-03-07T13:36:58.717Z,21.95
2018-03-07T13:38:01.256Z,21.98
2018-03-07T13:39:03.776Z,22.01